createdAt,value
2019-04-22T00:03:37.770Z,11.60
2019-04-22T00:09:03.728Z,10.35
2019-04-22T00:19:22.723Z,11.08
2019-04-22T00:24:25.566Z,12.13
2019-04-22T00:34:42.711Z,12.00
2019-04-22T00:39:52.060Z,9.45
2019-04-22T00:45:08.041Z,10.00
2019-04-22T00:55:23.083Z,10.18
2019-04-22T01:00:25.075Z,9.80
2019-04-22T01:05:34.490Z,9.43
2019-04-22T01:10:46.815Z,9.50
2019-04-22T01:15:47.831Z,8.60
2019-04-22T01:25:59.618Z,8.85
2019-04-22T01:30:57.745Z,8.83
2019-04-22T01:36:13.991Z,9.28
2019-04-22T01:46:40.359Z,8.85
2019-04-22T01:51:51.764Z,8.68
2019-04-22T01:56:53.853Z,8.70
2019-04-22T02:01:55.162Z,8.80
2019-04-22T02:07:12.529Z,8.98
2019-04-22T02:12:15.364Z,8.73
2019-04-22T02:17:26.654Z,8.43
2019-04-22T02:27:38.966Z,9.00
2019-04-22T02:33:03.870Z,9.63
2019-04-22T02:43:01.747Z,9.13
2019-04-22T02:53:38.510Z,9.60
2019-04-22T02:58:44.975Z,9.83
2019-04-22T03:08:45.672Z,10.23
2019-04-22T03:24:17.566Z,11.22
2019-04-22T03:29:11.362Z,10.18
2019-04-22T03:39:38.114Z,10.60
2019-04-22T03:44:40.203Z,11.53
2019-04-22T03:49:45.379Z,11.57
2019-04-22T03:55:00.738Z,10.08
2019-04-22T03:59:57.314Z,10.20
2019-04-22T04:10:19.190Z,11.35
2019-04-22T04:46:06.469Z,9.35
2019-04-22T04:56:22.806Z,8.48
2019-04-22T05:01:31.243Z,9.38
2019-04-22T05:12:01.899Z,10.10
2019-04-22T05:16:47.678Z,11.33
2019-04-22T05:22:05.783Z,12.60
2019-04-22T05:27:08.665Z,11.85
2019-04-22T05:42:20.268Z,17.23
2019-04-22T05:47:25.646Z,42.00
2019-04-22T05:52:34.444Z,42.95
2019-04-22T05:57:42.666Z,34.25
2019-04-22T06:08:02.425Z,26.12
2019-04-22T06:13:06.778Z,15.50
2019-04-22T06:18:25.572Z,9.93
2019-04-22T06:23:35.936Z,28.38
2019-04-22T06:33:53.230Z,10.53
2019-04-22T06:38:46.582Z,11.45
2019-04-22T06:44:04.397Z,10.63
2019-04-22T06:49:11.226Z,11.20
2019-04-22T06:54:14.070Z,12.63
2019-04-22T06:59:19.100Z,10.98
2019-04-22T07:04:27.955Z,11.10
2019-04-22T07:09:43.498Z,18.20
2019-04-22T07:14:44.553Z,22.90
2019-04-22T07:19:51.153Z,13.68
2019-04-22T07:24:58.556Z,15.30
2019-04-22T07:30:15.401Z,13.93
2019-04-22T07:35:16.891Z,8.55
2019-04-22T07:40:32.392Z,9.75
2019-04-22T07:50:50.754Z,7.50
2019-04-22T07:55:45.676Z,7.70
2019-04-22T08:00:57.765Z,7.20
2019-04-22T08:11:25.031Z,7.95
2019-04-22T08:16:19.945Z,10.20
2019-04-22T08:21:22.330Z,7.03
2019-04-22T08:26:33.516Z,10.08
2019-04-22T08:31:48.601Z,9.30
2019-04-22T08:37:22.682Z,8.63
2019-04-22T08:42:09.641Z,7.65
2019-04-22T08:52:16.561Z,11.73
2019-04-22T08:57:31.631Z,6.60
2019-04-22T09:02:32.683Z,10.03
2019-04-22T09:17:56.119Z,6.45
2019-04-22T09:23:03.736Z,6.78
2019-04-22T09:28:07.339Z,6.15
2019-04-22T09:33:28.953Z,5.65
2019-04-22T09:38:32.871Z,5.55
2019-04-22T09:43:31.612Z,6.58
2019-04-22T09:53:55.781Z,5.25
2019-04-22T10:04:00.999Z,8.00
2019-04-22T10:14:18.751Z,3.77
2019-04-22T10:19:23.232Z,3.90
2019-04-22T10:24:33.320Z,5.95
2019-04-22T10:29:52.262Z,3.20
2019-04-22T10:34:34.696Z,4.12
2019-04-22T10:39:43.848Z,3.95
2019-04-22T10:44:44.711Z,4.30
2019-04-22T10:49:50.336Z,4.25
2019-04-22T10:54:56.519Z,6.33
2019-04-22T11:00:02.896Z,3.90
2019-04-22T11:05:12.208Z,3.95
2019-04-22T11:10:35.374Z,2.52
2019-04-22T11:15:28.578Z,3.95
2019-04-22T11:20:35.770Z,2.65
2019-04-22T11:25:43.962Z,4.30
2019-04-22T11:30:50.390Z,3.58
2019-04-22T11:35:57.494Z,4.55
2019-04-22T11:41:05.314Z,4.63
2019-04-22T11:46:13.346Z,3.62
2019-04-22T11:51:20.480Z,3.27
2019-04-22T11:56:27.146Z,3.47
2019-04-22T12:01:34.823Z,3.55
2019-04-22T12:06:41.953Z,4.17
2019-04-22T12:11:49.411Z,5.22
2019-04-22T12:16:55.593Z,6.05
2019-04-22T12:22:02.901Z,5.30
2019-04-22T12:27:12.233Z,4.28
2019-04-22T12:32:18.223Z,6.58
2019-04-22T12:37:32.995Z,5.40
2019-04-22T12:42:33.148Z,7.00
2019-04-22T12:47:40.338Z,5.30
2019-04-22T12:52:55.584Z,6.05
2019-04-22T12:57:58.663Z,8.13
2019-04-22T13:03:03.264Z,5.70
2019-04-22T13:08:09.730Z,5.12
2019-04-22T13:13:15.922Z,6.28
2019-04-22T13:18:33.315Z,4.95
2019-04-22T13:23:29.855Z,4.58
2019-04-22T13:28:36.798Z,4.40
2019-04-22T13:33:43.183Z,3.87
2019-04-22T13:38:49.255Z,3.55
2019-04-22T13:43:56.081Z,4.12
2019-04-22T13:49:31.523Z,5.20
2019-04-22T13:59:26.724Z,3.50
2019-04-22T14:04:28.402Z,3.65
2019-04-22T14:09:35.962Z,3.72
2019-04-22T14:14:43.755Z,3.72
2019-04-22T14:19:50.674Z,4.50
2019-04-22T14:24:56.994Z,6.40
2019-04-22T14:30:04.251Z,4.12
2019-04-22T14:35:13.242Z,4.40
2019-04-22T14:40:22.341Z,4.47
2019-04-22T14:46:04.017Z,4.12
2019-04-22T14:50:57.711Z,4.78
2019-04-22T14:55:44.354Z,4.72
2019-04-22T15:00:51.943Z,4.73
2019-04-22T15:05:58.057Z,6.50
2019-04-22T15:11:06.134Z,3.83
2019-04-22T15:16:29.831Z,3.92
2019-04-22T15:21:36.765Z,3.72
2019-04-22T15:26:42.778Z,3.62
2019-04-22T15:31:49.262Z,4.20
2019-04-22T15:36:55.997Z,3.77
2019-04-22T15:42:11.789Z,4.45
2019-04-22T15:47:11.021Z,4.20
2019-04-22T15:52:18.767Z,6.67
2019-04-22T15:57:25.060Z,3.40
2019-04-22T16:02:31.744Z,4.97
2019-04-22T16:07:38.020Z,5.40
2019-04-22T16:12:52.972Z,5.12
2019-04-22T16:17:52.949Z,5.53
2019-04-22T16:23:22.368Z,6.50
2019-04-22T16:28:29.346Z,6.45
2019-04-22T16:33:39.865Z,6.37
2019-04-22T16:38:44.912Z,5.87
2019-04-22T16:43:51.058Z,5.65
2019-04-22T16:48:57.932Z,5.85
2019-04-22T16:54:04.416Z,6.17
2019-04-22T16:59:10.799Z,5.95
2019-04-22T17:04:34.523Z,5.53
2019-04-22T17:09:41.678Z,5.95
2019-04-22T17:14:54.765Z,7.87
2019-04-22T17:19:55.576Z,7.53
2019-04-22T17:25:02.657Z,7.17
2019-04-22T17:35:17.831Z,8.28
2019-04-22T17:40:38.905Z,7.70
2019-04-22T17:51:10.497Z,9.53
2019-04-22T17:56:15.695Z,9.93
2019-04-22T18:01:28.066Z,11.45
2019-04-22T18:06:44.083Z,11.37
2019-04-22T18:11:53.427Z,13.15
2019-04-22T18:16:56.773Z,13.98
2019-04-22T18:21:53.339Z,13.45
2019-04-22T18:27:06.960Z,16.00
2019-04-22T18:32:05.662Z,13.62
2019-04-22T18:37:18.419Z,13.50
2019-04-22T18:42:23.909Z,13.55
2019-04-22T18:47:32.331Z,13.38
2019-04-22T18:52:54.207Z,14.05
2019-04-22T18:58:03.000Z,14.20
2019-04-22T19:03:01.967Z,9.83
2019-04-22T19:08:36.760Z,11.95
2019-04-22T19:18:41.822Z,10.70
2019-04-22T19:23:51.992Z,10.85
2019-04-22T19:28:55.579Z,14.60
2019-04-22T19:34:03.315Z,13.60
2019-04-22T19:39:10.362Z,14.78
2019-04-22T19:44:21.421Z,14.65
2019-04-22T19:54:38.781Z,14.28
2019-04-22T19:59:45.445Z,14.20
2019-04-22T20:05:05.848Z,15.80
2019-04-22T20:10:19.588Z,14.35
2019-04-22T20:15:18.248Z,15.43
2019-04-22T20:25:34.853Z,15.72
2019-04-22T20:30:45.825Z,15.30
2019-04-22T20:35:56.602Z,15.32
2019-04-22T20:40:58.083Z,13.95
2019-04-22T20:46:11.390Z,15.72
2019-04-22T20:51:17.120Z,16.05
2019-04-22T20:56:25.155Z,15.68
2019-04-22T21:01:33.506Z,15.48
2019-04-22T21:11:45.048Z,16.80
2019-04-22T21:16:56.410Z,17.00
2019-04-22T21:22:12.863Z,17.80
2019-04-22T21:27:13.829Z,17.98
2019-04-22T21:32:22.063Z,17.17
2019-04-22T21:37:34.675Z,17.95
2019-04-22T21:42:45.463Z,17.40
2019-04-22T21:48:00.097Z,17.87
2019-04-22T21:53:03.585Z,18.52
2019-04-22T21:58:16.090Z,18.42
2019-04-22T22:03:27.954Z,19.82
2019-04-22T22:08:33.759Z,19.10
2019-04-22T22:13:34.863Z,18.90
2019-04-22T22:18:35.333Z,18.15
2019-04-22T22:23:52.033Z,20.88
2019-04-22T22:29:05.059Z,18.05
2019-04-22T22:34:09.732Z,18.95
2019-04-22T22:39:07.562Z,19.60
2019-04-22T22:44:08.899Z,18.55
2019-04-22T22:49:35.788Z,18.27
2019-04-22T22:54:42.072Z,18.82
2019-04-22T22:59:44.209Z,18.23
2019-04-22T23:04:55.859Z,17.90
2019-04-22T23:10:05.049Z,17.73
2019-04-22T23:15:04.769Z,18.05
2019-04-22T23:19:57.950Z,18.00
2019-04-22T23:25:40.054Z,17.90
2019-04-22T23:30:38.256Z,18.87
2019-04-22T23:35:56.042Z,18.30
2019-04-22T23:41:06.968Z,18.07
2019-04-22T23:46:14.794Z,17.50
2019-04-22T23:51:22.568Z,17.75
2019-04-22T23:56:29.430Z,16.70
